Sunday, December 17, 2017, 2:41 PM EST
Back to Local

KWST, Westerly State Airport

Location: Westerly, RI, United States Lat: 41.35
Local Time: 2:41 PM EST (19:41 GMT) Lon: -71.8
Time Zone: US/Eastern Elev: 82 ft

Show me the last for .
Show Coded

Time T Td Feel RH Dir Speed Gust Alt SLP Vis Weather Sky Remarks
2017-12-17 13:53 32 4 27 29 300° 5 - 30.24 30.24 10 CLR None
2017-12-17 12:53 32 6 26 32 330° 6 - 30.26 30.26 10 CLR 6-hr Min Temp (1pm): 21.0°F
6-hr Max Temp (1pm): 32.0°F
2017-12-17 11:53 32 6 26 32 320° 7 - 30.26 30.26 10 CLR None
2017-12-17 10:53 30 9 18 40 320° 9 20 30.29 30.29 10 CLR None
2017-12-17 09:53 29 8 20 40 320° 9 - 30.30 30.29 10 CLR None
2017-12-17 08:53 26 8 17 45 330° 9 - 30.28 30.29 10 CLR None
2017-12-17 07:53 23 8 16 52 330° 6 - 30.28 30.28 10 CLR None
2017-12-17 06:53 22 8 16 54 330° 5 - 30.28 30.28 10 CLR 6-hr Min Temp (7am): 21.9°F
6-hr Max Temp (7am): 27.0°F
2017-12-17 05:53 23 9 16 54 320° 6 - 30.28 30.28 10 CLR None
2017-12-17 04:53 24 10 18 54 310° 5 - 30.27 30.27 10 CLR None
2017-12-17 03:53 24 12 18 59 310° 5 - 30.24 30.24 10 CLR None
2017-12-17 02:53 26 11 19 52 300° 6 - 30.24 30.24 10 CLR None
2017-12-17 01:53 26 13 19 56 Variable 6 - 30.23 30.22 10 CLR None
2017-12-17 00:53 27 12 22 52 Variable 5 - 30.20 30.20 10 CLR 6-hr Min Temp (1am): 27.0°F
6-hr Max Temp (1am): 35.1°F
2017-12-16 23:53 28 12 19 50 330° 9 - 30.20 30.20 10 CLR 24-hr Min Temp (12am): 18.0°F
24-hr Max Temp (12am): 37.0°F
2017-12-16 22:53 28 17 22 62 340° 6 - 30.19 30.19 10 CLR None
2017-12-16 21:53 30 18 23 60 330° 7 - 30.17 30.17 10 CLR None
2017-12-16 20:53 32 21 27 63 Variable 5 - 30.14 30.14 10 BKN048 OVC055 None
2017-12-16 19:53 32 22 27 65 320° 5 - 30.12 30.12 10 BKN038 OVC048 None
2017-12-16 18:53 35 22 30 58 Variable 6 - 30.09 30.09 10 BKN037 OVC080 Pressure rising rapidly
6-hr Min Temp (7pm): 34.0°F
6-hr Max Temp (7pm): 37.0°F
2017-12-16 17:53 35 22 30 58 260° 6 - 30.03 30.03 10 OVC095 None
2017-12-16 16:53 35 22 30 58 270° 6 - 30.00 30.00 10 FEW046 OVC100 None
2017-12-16 15:53 36 21 29 54 250° 9 - 29.97 29.97 10 FEW095 None
2017-12-16 14:53 37 20 31 49 270° 8 - 29.95 29.95 10 FEW090 None

Support USWX by starting your Amazon purchase here.